首页
METAR-TAF:

METAR-TAF

机场 :

旭川機場

旭川, 日本

纬度: 43-40N, 经度: 142-27E, 海拔: 208米

当前天气观测

该预报发布于56分钟前的19:00 UTC
风速17节,风向北转西北
温度 -11°C
湿度 78%
气压 1024 hPa
能见度10公里或以上

METAR: RJEC 271900Z AUTO 34017KT 9999 NCD M11/M14 Q1024

时间: 04:56 (19:56 UTC)

预报

该预报发布于2小时和51分钟前的17:05 UTC
预报有效从27日的 18点(UTC)到 29日的 00点(UTC)
风速16节,风向北转西北
能见度10公里或以上
少量云层高于3000英尺
散云层高于5000英尺
成为
从 28日的 09点(UTC)到 28日的 12点(UTC)
风速6节,风向西北
成为
从 28日的 15点(UTC)到 28日的 18点(UTC)
风速5节,风向南转西南

TAF: RJEC 271705Z 2718/2900 33016KT 9999 FEW030 SCT050 BECMG 2809/2812 32006KT BECMG 2815/2818 20005KT

超过4000个机场的气象观测和天气预报(METAR&TAF报告)。

可查询的气象台以黄色和红色小点在地图上表示。

将鼠标移到小点上方,可查看气象台名称。

然后点击查看天气观测和预报。

如需切换地图:点击带黑十字的绿色按钮放大地图;点击带横线的绿色按钮缩小地图;或者点击绿色箭头查看邻近地区的地图。


METAR-TAF: